Terminal Aerodrome Forecast
Issued by NWS Shreveport, LA

Home | Current Version | Previous Version | Text Only | Print | Product List | Glossary On
Versions: 1 2 3 4 5 6 7 8 9 10 11 12 13 14 15 16 17 18 19 20
000
FTUS44 KSHV 240823 AAB
TAFTYR
TAF AMD
KTYR 240823Z 2408/2506 16013G20KT 6SM -SHRA VCTS SCT020CB BKN080
      TEMPO 2409/2413 4SM -TSRA BKN020CB
     FM241300 17014G22KT P6SM VCTS BKN025CB
     FM241500 17015G23KT 5SM -TSRA BR OVC025CB
     FM242200 16018G25KT P6SM VCTS OVC025CB
     FM250000 17018G25KT P6SM OVC025=

USA.gov is the U.S. government's official web portal to all federal, state and local government web resources and services.